Hawaii METAR Reports

 

PHOG - Kahului, Hawaii, USA
Distance from station: WNW 8mi, 13km
Updated: Mon, 18-Mar-2019 5:54am HST
Few Clouds
Few Clouds
 Wind from calm
Wind: Calm
Temperature: 57°F , 14°C
Dew Point: 52°F , 11°C
Humidity: 82%
Barometer: 30.04 inHg , 1017.3 hPa
Clouds: Few Clouds
Visibility: 10 miles , 16 km
Cloud details: Few Clouds 3000 ft
2019/03/18 15:54 PHOG 181554Z 00000KT 10SM FEW030 14/11 A3004 RMK AO2 SLP178 T01440106 $
PHJH - Lahaina/West Mau, Hawaii, USA
Distance from station: WNW 24mi, 39km
Updated: Mon, 18-Mar-2019 6:00am HST
Few Clouds
Few Clouds
 Wind from NE
Wind: NE 9 mph , 15 km/h
Temperature: 64°F , 18°C
Dew Point: 54°F , 12°C
Humidity: 68%
Barometer: 30.03 inHg , 1016.9 hPa
Clouds: Few Clouds
Visibility: 15 miles , 24 km
Cloud details: Few Clouds 4000 ft
2019/03/18 16:00 PHJH 181600Z 05008KT 15SM FEW040 18/12 A3003
 
PHNY - Lanai City Airpo, Hawaii, USA
Distance from station: W 40mi, 65km
Updated: Sat, 16-Mar-2019 11:56am HST
NOT Current
Mostly Cloudy
Mostly Cloudy
 Wind from W
Wind: W 13 mph , 20 km/h
Temperature: 73°F , 23°C
Dew Point: 57°F , 14°C
Humidity: 57%
Barometer: 30.07 inHg , 1018.3 hPa
Clouds: Mostly Cloudy
Visibility: 10 miles , 16 km
Cloud details: Few Clouds 2900 ft
Mostly Cloudy 4100 ft
2019/03/16 21:56 PHNY 162156Z AUTO 27011KT 10SM FEW029 BKN041 23/14 A3007 RMK AO2 SLP162 T02330144
PHMK - Molokai, Hawaii, USA
Distance from station: WNW 55mi, 88km
Updated: Mon, 18-Mar-2019 5:54am HST
Mostly Cloudy
Mostly Cloudy
 Wind from NNE
Wind: NNE 10 mph , 17 km/h
Temperature: 66°F , 19°C
Dew Point: 57°F , 14°C
Humidity: 73%
Barometer: 30.04 inHg , 1017.3 hPa
Clouds: Mostly Cloudy
Visibility: 10 miles , 16 km
Cloud details: Mostly Cloudy 3000 ft
Mostly Cloudy 3800 ft
2019/03/18 15:54 PHMK 181554Z AUTO 03009KT 10SM BKN030 BKN038 19/14 A3004 RMK AO2 SLP175 T01940139 TSNO
 
PHKO - Kailua/Kona, Hawaii, USA
Distance from station: SSE 79mi, 128km
Updated: Mon, 18-Mar-2019 5:53am HST
Mostly Cloudy
Mostly Cloudy
 Wind from NE
Wind: NE 5 mph , 7 km/h
Temperature: 66°F , 19°C
Dew Point: 57°F , 14°C
Humidity: 73%
Barometer: 29.98 inHg , 1015.2 hPa
Clouds: Mostly Cloudy
Visibility: 10 miles , 16 km
Cloud details: Mostly Cloudy 5500 ft
2019/03/18 15:53 PHKO 181553Z 05004KT 10SM BKN055 19/14 A2998 RMK AO2 SLP152 T01940139
PHSF - Bradshaw Aaf/Haw, Hawaii, USA
Distance from station: SE 90mi, 145km
Updated: Mon, 18-Mar-2019 4:56am HST
Few Clouds
Few Clouds
 Wind from SE
Wind: SE 3 mph , 6 km/h
Clouds: Few Clouds
Visibility: 10 miles , 16 km
Cloud details: Few Clouds 5000 ft
2019/03/18 14:56 PHSF 181456Z AUTO 13003KT 10SM FEW050 M M RMK AO2 SLPNO WND DATA ESTMD PWINO PNO $
 
PHNG - Kaneohe Mcas, Hawaii, USA
Distance from station: WNW 102mi, 164km
Updated: Mon, 18-Mar-2019 5:57am HST
Overcast
Overcast
 Wind from ENE
Wind: ENE 5 mph , 7 km/h
Temperature: 70°F , 21°C
Dew Point: 61°F , 16°C
Humidity: 73%
Barometer: 30.02 inHg , 1016.6 hPa
Clouds: Overcast
Visibility: 10 miles , 16 km
Cloud details: Overcast 5500 ft
2019/03/18 15:57 PHNG 181557Z 07004KT 10SM OVC055 21/16 A3002 RMK AO2 SLP160 T02110161 $
PHNL - Honolulu, Hawaii, USA
Distance from station: WNW 108mi, 174km
Updated: Mon, 18-Mar-2019 5:53am HST
Few Clouds
Few Clouds
 Wind from NW
Wind: NW 5 mph , 7 km/h
Temperature: 64°F , 18°C
Dew Point: 55°F , 13°C
Humidity: 73%
Barometer: 30.04 inHg , 1017.3 hPa
Clouds: Few Clouds
Visibility: 10 miles , 16 km
Cloud details: Few Clouds 3500 ft
2019/03/18 15:53 PHNL 181553Z 32004KT 10SM FEW035 18/13 A3004 RMK AO2 SLP170 T01830133
 
PHTO - Hilo, Hawaii, USA
Distance from station: SE 114mi, 183km
Updated: Mon, 18-Mar-2019 5:53am HST
Overcast
Overcast
 Wind from W
Wind: W 7 mph , 11 km/h
Temperature: 68°F , 20°C
Dew Point: 57°F , 14°C
Humidity: 69%
Barometer: 30.03 inHg , 1016.9 hPa
Clouds: Overcast
Visibility: 10 miles , 16 km
Cloud details: Partly Cloudy 3800 ft
Overcast 4800 ft
2019/03/18 15:53 PHTO 181553Z AUTO 28006KT 10SM SCT038 OVC048 20/14 A3003 RMK AO2 SLP169 T02000139 TSNO
PHJR - Kalaeloa, Hawaii, USA
Distance from station: WNW 117mi, 189km
Updated: Mon, 18-Mar-2019 5:53am HST
Clear
Clear
 Wind from NNE
Wind: NNE 6 mph , 9 km/h
Temperature: 66°F , 19°C
Dew Point: 55°F , 13°C
Humidity: 68%
Barometer: 30.05 inHg , 1017.6 hPa
Clouds: Clear
Visibility: 10 miles , 16 km
2019/03/18 15:53 PHJR 181553Z 03005KT 10SM CLR 19/13 A3005 RMK AO2 SLP182 T01890128
 
PHHI - Wheeler Afb/Oahu, Hawaii, USA
Distance from station: WNW 120mi, 193km
Updated: Mon, 18-Mar-2019 3:56am HST
NOT Current
Few Clouds
Few Clouds
 Wind from WNW
Wind: WNW 5 mph , 7 km/h
Temperature: 57°F , 14°C
Dew Point: 52°F , 11°C
Humidity: 82%
Barometer: 30.02 inHg , 1016.6 hPa
Clouds: Few Clouds
Visibility: 10 miles , 16 km
Cloud details: Few Clouds 3600 ft
2019/03/18 13:56 PHHI 181356Z AUTO 30004KT 10SM FEW036 14/11 A3002 RMK AO2 SLP162 T01440112 $
PHLI - Lihue/Kauai Is, Hawaii, USA
Distance from station: WNW 209mi, 336km
Updated: Mon, 18-Mar-2019 5:53am HST
Overcast
Overcast
 Wind from NNE
Wind: NNE 8 mph , 13 km/h
Temperature: 68°F , 20°C
Dew Point: 55°F , 13°C
Humidity: 64%
Barometer: 30.07 inHg , 1018.3 hPa
Clouds: Overcast
Visibility: 10 miles , 16 km
Cloud details: Overcast 3500 ft
2019/03/18 15:53 PHLI 181553Z 02007KT 10SM OVC035 20/13 A3007 RMK AO2 RAB40E49 SLP180 P0000 T02000133
 
PHBK - Barking Sands/Ka, Hawaii, USA
Distance from station: WNW 237mi, 382km
Updated: Mon, 18-Mar-2019 5:56am HST
Overcast
Overcast
 Wind from NE
Wind: NE 3 mph , 6 km/h
Temperature: 66°F , 19°C
Dew Point: 55°F , 13°C
Humidity: 68%
Barometer: 30.05 inHg , 1017.6 hPa
Clouds: Overcast
Visibility: 10 miles , 16 km
Cloud details: Overcast 5500 ft
2019/03/18 15:56 PHBK 181556Z AUTO 05003KT 10SM OVC055 19/13 A3005 RMK AO2 SLP177 T01890128 $